createdAt,value
2017-11-09T00:00:59.855Z,99.20
2017-11-09T00:03:28.112Z,99.60
2017-11-09T00:06:02.151Z,99.40
2017-11-09T00:08:30.407Z,99.80
2017-11-09T00:10:58.655Z,99.90
2017-11-09T00:13:26.927Z,99.90
2017-11-09T00:15:55.179Z,99.70
2017-11-09T00:18:24.195Z,99.80
2017-11-09T00:20:53.084Z,99.80
2017-11-09T00:23:21.331Z,99.90
2017-11-09T00:25:50.349Z,99.90
2017-11-09T00:28:18.631Z,99.90
2017-11-09T00:30:46.892Z,99.40
2017-11-09T00:33:15.170Z,98.80
2017-11-09T00:35:43.447Z,98.80
2017-11-09T00:38:11.695Z,99.00
2017-11-09T00:40:40.011Z,98.50
2017-11-09T00:43:08.722Z,98.10
2017-11-09T00:45:36.979Z,98.60
2017-11-09T00:48:05.227Z,98.70
2017-11-09T00:50:33.603Z,99.80
2017-11-09T00:53:01.855Z,99.90
2017-11-09T00:55:30.108Z,99.90
2017-11-09T00:57:58.673Z,99.90
2017-11-09T01:00:26.919Z,99.90
2017-11-09T01:02:55.171Z,99.40
2017-11-09T01:05:23.593Z,98.90
2017-11-09T01:07:51.839Z,99.50
2017-11-09T01:10:20.094Z,99.20
2017-11-09T01:12:48.368Z,99.40
2017-11-09T01:15:16.619Z,99.90
2017-11-09T01:17:44.864Z,99.90
2017-11-09T01:20:13.900Z,99.90
2017-11-09T01:22:42.148Z,99.90
2017-11-09T01:25:11.227Z,99.90
2017-11-09T01:27:39.650Z,99.90
2017-11-09T01:30:07.908Z,99.90
2017-11-09T01:32:36.161Z,99.90
2017-11-09T01:35:04.446Z,99.90
2017-11-09T01:37:32.699Z,99.90
2017-11-09T01:42:53.473Z,99.90
2017-11-09T01:45:21.715Z,99.90
2017-11-09T01:47:49.960Z,99.90
2017-11-09T01:50:18.616Z,99.90
2017-11-09T01:52:46.868Z,99.90
2017-11-09T01:55:15.108Z,99.90
2017-11-09T01:57:43.751Z,99.90
2017-11-09T02:00:12.225Z,99.90
2017-11-09T02:02:40.471Z,99.10
2017-11-09T02:05:10.423Z,99.90
2017-11-09T02:07:38.667Z,99.90
2017-11-09T02:10:06.915Z,99.90
2017-11-09T02:12:35.456Z,99.90
2017-11-09T02:15:03.694Z,99.90
2017-11-09T02:17:32.706Z,99.90
2017-11-09T02:20:01.311Z,99.90
2017-11-09T02:22:29.554Z,99.90
2017-11-09T02:24:58.567Z,99.90
2017-11-09T02:27:27.275Z,99.90
2017-11-09T02:29:55.524Z,99.90
2017-11-09T02:32:23.775Z,99.90
2017-11-09T02:34:53.131Z,99.90
2017-11-09T02:37:21.379Z,99.90
2017-11-09T02:39:49.631Z,99.90
2017-11-09T02:42:18.263Z,99.90
2017-11-09T02:44:46.508Z,99.90
2017-11-09T02:47:14.761Z,99.90
2017-11-09T02:49:43.596Z,99.90
2017-11-09T02:52:11.839Z,99.90
2017-11-09T02:54:40.091Z,99.90
2017-11-09T02:57:08.843Z,99.90
2017-11-09T02:59:37.092Z,99.90
2017-11-09T03:02:05.772Z,99.90
2017-11-09T03:04:34.604Z,99.90
2017-11-09T03:07:02.864Z,99.90
2017-11-09T03:09:31.111Z,99.90
2017-11-09T03:11:59.967Z,99.90
2017-11-09T03:14:28.221Z,99.90
2017-11-09T03:16:56.694Z,99.90
2017-11-09T03:19:25.491Z,99.90
2017-11-09T03:21:53.743Z,99.90
2017-11-09T03:24:21.991Z,99.90
2017-11-09T03:26:50.527Z,99.90
2017-11-09T03:29:18.776Z,99.90
2017-11-09T03:31:47.024Z,99.90
2017-11-09T03:34:16.684Z,99.90
2017-11-09T03:36:44.933Z,99.90
2017-11-09T03:39:13.180Z,99.90
2017-11-09T03:41:41.827Z,99.90
2017-11-09T03:44:10.064Z,99.90
2017-11-09T03:46:38.310Z,99.90
2017-11-09T03:49:06.963Z,99.90
2017-11-09T03:51:35.214Z,99.90
2017-11-09T03:54:03.463Z,99.90
2017-11-09T03:56:32.099Z,99.90
2017-11-09T03:59:00.348Z,99.90
2017-11-09T04:01:28.603Z,99.90
2017-11-09T04:03:57.549Z,99.90
2017-11-09T04:06:25.933Z,99.90
2017-11-09T04:08:54.167Z,99.90
2017-11-09T04:11:22.986Z,99.90
2017-11-09T04:13:51.239Z,99.90
2017-11-09T04:16:19.493Z,99.90
2017-11-09T04:18:48.435Z,99.90
2017-11-09T04:21:16.688Z,99.90
2017-11-09T04:23:44.946Z,99.90
2017-11-09T04:26:14.497Z,99.90
2017-11-09T04:28:42.760Z,99.90
2017-11-09T04:31:11.063Z,99.90
2017-11-09T04:33:39.629Z,99.90
2017-11-09T04:36:07.871Z,99.90
2017-11-09T04:38:36.119Z,99.90
2017-11-09T04:41:05.076Z,99.90
2017-11-09T04:43:33.319Z,99.90
2017-11-09T04:46:01.567Z,99.90
2017-11-09T04:48:30.210Z,99.90
2017-11-09T04:50:58.463Z,99.90
2017-11-09T04:53:26.711Z,99.90
2017-11-09T04:55:55.373Z,99.90
2017-11-09T04:58:23.603Z,99.90
2017-11-09T05:00:51.848Z,99.90
2017-11-09T05:03:20.760Z,99.90
2017-11-09T05:05:50.095Z,99.90
2017-11-09T05:08:18.355Z,99.90
2017-11-09T05:10:47.163Z,99.90
2017-11-09T05:13:15.411Z,99.90
2017-11-09T05:15:43.664Z,99.90
2017-11-09T05:18:12.295Z,99.90
2017-11-09T05:20:40.538Z,99.90
2017-11-09T05:23:08.789Z,99.90
2017-11-09T05:25:37.744Z,99.90
2017-11-09T05:28:05.984Z,99.90
2017-11-09T05:30:34.228Z,99.90
2017-11-09T05:33:02.884Z,99.90
2017-11-09T05:35:31.131Z,99.90
2017-11-09T05:37:59.372Z,99.90
2017-11-09T05:40:28.017Z,99.90
2017-11-09T05:42:56.264Z,99.90
2017-11-09T05:45:24.514Z,99.90
2017-11-09T05:47:53.155Z,99.90
2017-11-09T05:50:21.408Z,99.90
2017-11-09T05:52:49.663Z,99.90
2017-11-09T05:55:18.298Z,99.90
2017-11-09T05:57:46.571Z,99.90
2017-11-09T06:00:14.831Z,99.90
2017-11-09T06:02:43.426Z,99.90
2017-11-09T06:05:11.675Z,99.90
2017-11-09T06:07:40.115Z,99.90
2017-11-09T06:10:08.876Z,99.90
2017-11-09T06:12:37.124Z,99.90
2017-11-09T06:15:08.629Z,99.90
2017-11-09T06:17:37.150Z,99.90
2017-11-09T06:20:05.400Z,99.90
2017-11-09T06:22:33.708Z,99.90
2017-11-09T06:25:02.294Z,99.90
2017-11-09T06:27:30.552Z,99.90
2017-11-09T06:29:59.626Z,99.90
2017-11-09T06:32:28.595Z,99.90
2017-11-09T06:34:56.847Z,99.90
2017-11-09T06:37:25.096Z,99.90
2017-11-09T06:39:53.372Z,99.90
2017-11-09T06:42:22.390Z,99.90
2017-11-09T06:44:50.639Z,99.90
2017-11-09T06:47:18.910Z,99.90
2017-11-09T06:49:47.159Z,99.90
2017-11-09T06:52:15.400Z,99.90
2017-11-09T06:54:43.829Z,99.90
2017-11-09T06:57:12.074Z,99.90
2017-11-09T06:59:40.321Z,99.90
2017-11-09T07:02:08.585Z,99.90
2017-11-09T07:04:36.831Z,99.90
2017-11-09T07:07:05.075Z,99.90
2017-11-09T07:09:33.768Z,99.90
2017-11-09T07:12:02.006Z,99.90
2017-11-09T07:14:31.019Z,99.90
2017-11-09T07:16:59.721Z,99.90
2017-11-09T07:19:27.968Z,99.90
2017-11-09T07:21:56.207Z,99.90
2017-11-09T07:24:24.678Z,99.90
2017-11-09T07:26:52.917Z,99.90
2017-11-09T07:29:21.160Z,99.90
2017-11-09T07:31:49.430Z,99.90
2017-11-09T07:34:17.680Z,99.90
2017-11-09T07:36:45.919Z,99.90
2017-11-09T07:39:14.247Z,99.90
2017-11-09T07:41:42.501Z,99.90
2017-11-09T07:44:10.824Z,99.90
2017-11-09T07:46:39.072Z,99.90
2017-11-09T07:49:07.319Z,99.90
2017-11-09T07:51:35.571Z,99.90
2017-11-09T07:54:03.844Z,99.90
2017-11-09T07:56:32.092Z,99.90
2017-11-09T07:59:00.332Z,99.90
2017-11-09T08:01:29.027Z,99.90
2017-11-09T08:03:57.255Z,99.90
2017-11-09T08:06:25.509Z,99.90
2017-11-09T08:08:53.776Z,99.90
2017-11-09T08:11:22.312Z,99.90
2017-11-09T08:13:50.560Z,99.90
2017-11-09T08:16:19.602Z,99.90
2017-11-09T08:18:47.852Z,99.90
2017-11-09T08:21:16.108Z,99.90
2017-11-09T08:23:44.736Z,99.90
2017-11-09T08:26:13.416Z,99.90
2017-11-09T08:28:45.410Z,99.90
2017-11-09T08:31:15.372Z,99.60
2017-11-09T08:33:43.731Z,99.60
2017-11-09T08:36:12.896Z,99.90
2017-11-09T08:38:41.140Z,99.90
2017-11-09T08:41:09.390Z,99.30
2017-11-09T08:43:37.871Z,99.90
2017-11-09T08:46:06.935Z,99.50
2017-11-09T08:48:35.191Z,99.50
2017-11-09T08:51:03.456Z,99.50
2017-11-09T08:53:31.708Z,99.70
2017-11-09T08:55:59.967Z,99.00
2017-11-09T08:58:28.252Z,98.30
2017-11-09T09:00:56.491Z,98.30
2017-11-09T09:03:24.752Z,98.70
2017-11-09T09:05:53.420Z,99.40
2017-11-09T09:08:21.667Z,99.40
2017-11-09T09:10:49.919Z,99.50
2017-11-09T09:13:18.752Z,98.30
2017-11-09T09:15:47.004Z,97.80
2017-11-09T09:18:16.019Z,99.30
2017-11-09T09:20:55.367Z,99.00
2017-11-09T09:23:23.624Z,99.30
2017-11-09T09:26:10.588Z,99.20
2017-11-09T09:28:41.332Z,99.30
2017-11-09T09:31:09.595Z,99.30
2017-11-09T09:33:40.580Z,99.30
2017-11-09T09:36:18.795Z,99.50
2017-11-09T09:38:49.439Z,99.10
2017-11-09T09:41:17.754Z,99.30
2017-11-09T09:43:45.996Z,99.10
2017-11-09T09:46:14.273Z,99.10
2017-11-09T09:48:42.530Z,98.70
2017-11-09T09:51:10.804Z,97.80
2017-11-09T09:53:39.854Z,97.60
2017-11-09T09:56:08.095Z,97.60
2017-11-09T09:58:36.349Z,97.10
2017-11-09T10:01:04.811Z,96.90
2017-11-09T10:03:33.065Z,96.70
2017-11-09T10:06:01.351Z,96.80
2017-11-09T10:08:29.633Z,97.00
2017-11-09T10:10:57.879Z,96.70
2017-11-09T10:13:26.524Z,96.80
2017-11-09T10:15:56.479Z,97.40
2017-11-09T10:18:24.732Z,97.30
2017-11-09T10:20:53.007Z,96.60
2017-11-09T10:23:22.192Z,97.60
2017-11-09T10:25:51.215Z,96.80
2017-11-09T10:28:19.490Z,96.70
2017-11-09T10:30:47.767Z,95.40
2017-11-09T10:33:20.820Z,95.10
2017-11-09T10:35:49.094Z,94.50
2017-11-09T10:38:17.348Z,95.10
2017-11-09T10:40:45.594Z,95.30
2017-11-09T10:43:14.190Z,95.50
2017-11-09T10:45:42.431Z,94.80
2017-11-09T10:48:10.692Z,93.80
2017-11-09T10:50:39.109Z,93.60
2017-11-09T10:53:07.348Z,95.50
2017-11-09T10:55:37.540Z,94.60
2017-11-09T10:58:05.848Z,94.40
2017-11-09T11:00:39.828Z,92.90
2017-11-09T11:03:08.594Z,91.50
2017-11-09T11:05:36.839Z,90.90
2017-11-09T11:08:05.087Z,91.00
2017-11-09T11:10:34.155Z,92.10
2017-11-09T11:13:02.399Z,92.10
2017-11-09T11:15:30.871Z,93.00
2017-11-09T11:17:59.158Z,91.70
2017-11-09T11:20:27.559Z,90.90
2017-11-09T11:22:55.798Z,90.70
2017-11-09T11:25:24.300Z,91.70
2017-11-09T11:27:52.548Z,91.80
2017-11-09T11:30:20.800Z,92.60
2017-11-09T11:32:49.076Z,94.30
2017-11-09T11:35:17.443Z,91.80
2017-11-09T11:37:45.706Z,90.30
2017-11-09T11:40:13.972Z,90.80
2017-11-09T11:42:42.278Z,92.00
2017-11-09T11:45:10.539Z,91.50
2017-11-09T11:47:38.851Z,92.50
2017-11-09T11:50:07.867Z,89.60
2017-11-09T11:52:36.123Z,89.70
2017-11-09T11:55:05.170Z,90.00
2017-11-09T11:57:33.415Z,90.00
2017-11-09T12:00:01.668Z,90.40
2017-11-09T12:02:29.942Z,90.10
2017-11-09T12:05:00.756Z,89.30
2017-11-09T12:07:29.021Z,89.00
2017-11-09T12:09:57.602Z,89.00
2017-11-09T12:12:28.753Z,90.50
2017-11-09T12:14:57.005Z,90.40
2017-11-09T12:17:25.784Z,90.40
2017-11-09T12:19:56.962Z,90.30
2017-11-09T12:22:25.213Z,88.90
2017-11-09T12:24:53.573Z,89.30
2017-11-09T12:27:22.575Z,88.80
2017-11-09T12:29:50.829Z,88.80
2017-11-09T12:32:19.458Z,89.50
2017-11-09T12:34:47.712Z,90.50
2017-11-09T12:37:15.966Z,90.50
2017-11-09T12:39:45.013Z,90.60
2017-11-09T12:42:13.262Z,90.70
2017-11-09T12:44:41.551Z,91.40
2017-11-09T12:47:09.831Z,91.00
2017-11-09T12:49:38.123Z,91.30
2017-11-09T12:52:06.359Z,91.20
2017-11-09T12:54:35.179Z,91.00
2017-11-09T12:57:03.431Z,90.80
2017-11-09T12:59:31.683Z,90.50
2017-11-09T13:01:59.959Z,90.80
2017-11-09T13:04:28.980Z,91.80
2017-11-09T13:06:57.236Z,91.80
2017-11-09T13:09:26.271Z,90.10
2017-11-09T13:11:54.527Z,90.10
2017-11-09T13:14:22.780Z,89.90
2017-11-09T13:16:52.155Z,89.20
2017-11-09T13:19:22.679Z,89.20
2017-11-09T13:21:50.936Z,90.00
2017-11-09T13:24:19.198Z,90.20
2017-11-09T13:26:47.465Z,90.10
2017-11-09T13:29:15.714Z,91.20
2017-11-09T13:31:44.756Z,90.00
2017-11-09T13:34:13.011Z,90.00
2017-11-09T13:36:41.263Z,90.60
2017-11-09T13:39:10.409Z,91.70
2017-11-09T13:41:38.664Z,91.60
2017-11-09T13:44:06.915Z,91.20
2017-11-09T13:46:35.956Z,90.80
2017-11-09T13:49:04.207Z,90.70
2017-11-09T13:51:32.460Z,90.20
2017-11-09T13:54:01.615Z,90.40
2017-11-09T13:56:29.851Z,90.40
2017-11-09T13:58:58.119Z,90.80
2017-11-09T14:01:26.944Z,90.90
2017-11-09T14:03:55.199Z,90.30
2017-11-09T14:06:23.451Z,90.30
2017-11-09T14:08:51.727Z,91.10
2017-11-09T14:11:20.743Z,90.20
2017-11-09T14:13:49.027Z,90.20
2017-11-09T14:16:17.299Z,90.50
2017-11-09T14:18:45.551Z,91.00
2017-11-09T14:21:14.854Z,90.80
2017-11-09T14:23:44.200Z,91.00
2017-11-09T14:26:12.477Z,90.90
2017-11-09T14:28:40.719Z,90.90
2017-11-09T14:31:08.995Z,90.70
2017-11-09T14:33:38.071Z,90.60
2017-11-09T14:36:06.333Z,90.50
2017-11-09T14:38:36.519Z,90.80
2017-11-09T14:41:04.797Z,90.40
2017-11-09T14:43:33.118Z,91.00
2017-11-09T14:46:01.764Z,91.60
2017-11-09T14:48:30.068Z,90.80
2017-11-09T14:50:58.331Z,91.40
2017-11-09T14:53:26.615Z,90.30
2017-11-09T14:55:54.863Z,90.00
2017-11-09T14:58:23.123Z,90.50
2017-11-09T15:00:51.395Z,90.80
2017-11-09T15:03:19.648Z,90.90
2017-11-09T15:05:47.992Z,91.30
2017-11-09T15:08:16.360Z,91.40
2017-11-09T15:10:44.616Z,90.80
2017-11-09T15:13:12.864Z,91.60
2017-11-09T15:15:41.910Z,90.30
2017-11-09T15:18:10.160Z,90.30
2017-11-09T15:20:38.411Z,91.10
2017-11-09T15:23:07.780Z,91.40
2017-11-09T15:25:36.041Z,91.30
2017-11-09T15:28:04.284Z,91.00
2017-11-09T15:30:32.853Z,90.60
2017-11-09T15:33:01.897Z,90.50
2017-11-09T15:35:30.145Z,90.50
2017-11-09T15:37:58.425Z,91.20
2017-11-09T15:40:26.679Z,91.40
2017-11-09T15:42:55.744Z,92.50
2017-11-09T15:45:24.015Z,92.50
2017-11-09T15:47:52.263Z,92.90
2017-11-09T15:50:20.523Z,93.10
2017-11-09T15:52:49.005Z,93.10
2017-11-09T15:55:17.263Z,93.20
2017-11-09T15:57:46.308Z,93.60
2017-11-09T16:00:14.570Z,93.60
2017-11-09T16:02:42.866Z,93.50
2017-11-09T16:05:11.555Z,93.50
2017-11-09T16:07:39.839Z,94.00
2017-11-09T16:10:08.092Z,93.90
2017-11-09T16:12:36.362Z,93.80
2017-11-09T16:15:04.768Z,93.20
2017-11-09T16:17:33.450Z,92.80
2017-11-09T16:20:02.860Z,92.70
2017-11-09T16:22:31.268Z,93.50
2017-11-09T16:25:01.476Z,93.50
2017-11-09T16:27:30.790Z,93.40
2017-11-09T16:29:59.853Z,93.90
2017-11-09T16:32:28.308Z,93.90
2017-11-09T16:34:56.551Z,94.50
2017-11-09T16:37:27.123Z,93.50
2017-11-09T16:39:57.581Z,93.60
2017-11-09T16:42:26.884Z,92.80
2017-11-09T16:44:55.172Z,92.80
2017-11-09T16:47:23.426Z,92.80
2017-11-09T16:49:51.682Z,93.10
2017-11-09T16:52:19.982Z,93.50
2017-11-09T16:54:48.352Z,93.70
2017-11-09T16:57:17.036Z,93.80
2017-11-09T16:59:45.347Z,93.50
2017-11-09T17:02:14.530Z,92.70
2017-11-09T17:04:46.932Z,92.70
2017-11-09T17:07:31.693Z,92.90
2017-11-09T17:10:01.665Z,92.90
2017-11-09T17:12:31.860Z,93.50
2017-11-09T17:15:01.231Z,94.10
2017-11-09T17:17:30.382Z,93.40
2017-11-09T17:19:58.645Z,93.30
2017-11-09T17:22:26.916Z,93.70
2017-11-09T17:24:56.728Z,93.90
2017-11-09T17:27:25.056Z,93.80
2017-11-09T17:29:53.446Z,93.90
2017-11-09T17:32:21.863Z,94.40
2017-11-09T17:34:50.198Z,94.60
2017-11-09T17:37:19.372Z,94.60
2017-11-09T17:39:47.762Z,95.50
2017-11-09T17:42:19.139Z,94.90
2017-11-09T17:44:47.423Z,95.60
2017-11-09T17:47:15.861Z,95.10
2017-11-09T17:49:44.216Z,95.00
2017-11-09T17:52:13.452Z,95.20
2017-11-09T17:54:42.079Z,95.10
2017-11-09T17:57:10.515Z,95.10
2017-11-09T17:59:41.599Z,95.40
2017-11-09T18:02:10.158Z,95.90
2017-11-09T18:04:40.325Z,95.50
2017-11-09T18:07:10.788Z,95.50
2017-11-09T18:09:39.210Z,95.60
2017-11-09T18:12:07.543Z,95.50
2017-11-09T18:14:37.828Z,96.10
2017-11-09T18:17:06.233Z,95.40
2017-11-09T18:19:36.705Z,95.10
2017-11-09T18:22:05.739Z,95.40
2017-11-09T18:24:36.689Z,95.40
2017-11-09T18:27:04.967Z,95.40
2017-11-09T18:29:33.287Z,95.10
2017-11-09T18:32:03.519Z,93.90
2017-11-09T18:34:32.720Z,94.70
2017-11-09T18:37:01.258Z,94.70
2017-11-09T18:39:31.887Z,95.20
2017-11-09T18:42:00.428Z,94.90
2017-11-09T18:44:29.874Z,95.40
2017-11-09T18:46:59.511Z,96.10
2017-11-09T18:49:28.185Z,96.10
2017-11-09T18:51:58.509Z,95.80
2017-11-09T18:54:26.957Z,96.70
2017-11-09T18:56:55.412Z,95.60
2017-11-09T18:59:24.875Z,95.40
2017-11-09T19:01:53.396Z,94.90
2017-11-09T19:04:22.864Z,94.50
2017-11-09T19:06:52.166Z,94.40
2017-11-09T19:09:20.632Z,95.00
2017-11-09T19:11:49.863Z,95.00
2017-11-09T19:14:20.170Z,95.00
2017-11-09T19:16:48.489Z,95.00
2017-11-09T19:19:17.278Z,95.20
2017-11-09T19:21:46.788Z,95.30
2017-11-09T19:24:15.189Z,95.10
2017-11-09T19:26:44.140Z,94.90
2017-11-09T19:29:14.336Z,94.90
2017-11-09T19:31:42.843Z,94.90
2017-11-09T19:34:11.398Z,94.70
2017-11-09T19:36:39.777Z,94.00
2017-11-09T19:39:08.219Z,94.00
2017-11-09T19:41:37.571Z,94.10
2017-11-09T19:44:05.873Z,94.90
2017-11-09T19:46:34.932Z,95.30
2017-11-09T19:49:03.668Z,95.40
2017-11-09T19:51:32.236Z,96.30
2017-11-09T19:54:00.672Z,96.20
2017-11-09T19:56:29.911Z,95.90
2017-11-09T19:59:00.132Z,96.00
2017-11-09T20:01:30.398Z,95.20
2017-11-09T20:03:59.108Z,95.20
2017-11-09T20:06:27.456Z,94.90
2017-11-09T20:08:55.813Z,95.00
2017-11-09T20:11:26.039Z,94.90
2017-11-09T20:13:54.380Z,94.90
2017-11-09T20:16:23.080Z,95.10
2017-11-09T20:18:51.454Z,95.70
2017-11-09T20:21:23.818Z,96.40
2017-11-09T20:23:52.339Z,95.70
2017-11-09T20:26:20.604Z,95.60
2017-11-09T20:28:49.875Z,95.30
2017-11-09T20:31:20.309Z,95.30
2017-11-09T20:33:53.752Z,95.30
2017-11-09T20:36:22.171Z,95.10
2017-11-09T20:38:50.447Z,95.10
2017-11-09T20:41:18.896Z,95.40
2017-11-09T20:43:47.416Z,95.60
2017-11-09T20:46:15.732Z,95.00
2017-11-09T20:48:45.203Z,95.50
2017-11-09T20:51:14.563Z,94.60
2017-11-09T20:53:42.875Z,94.40
2017-11-09T20:56:12.215Z,94.40
2017-11-09T20:58:41.365Z,94.60
2017-11-09T21:01:09.603Z,94.60
2017-11-09T21:03:38.066Z,95.00
2017-11-09T21:06:07.621Z,94.90
2017-11-09T21:08:35.927Z,94.90
2017-11-09T21:11:04.299Z,95.40
2017-11-09T21:13:32.703Z,95.60
2017-11-09T21:16:01.733Z,95.60
2017-11-09T21:18:29.991Z,95.60
2017-11-09T21:21:00.677Z,95.40
2017-11-09T21:23:29.707Z,95.20
2017-11-09T21:25:58.091Z,95.30
2017-11-09T21:28:27.010Z,95.10
2017-11-09T21:30:57.503Z,95.10
2017-11-09T21:33:27.707Z,94.90
2017-11-09T21:35:56.111Z,94.90
2017-11-09T21:38:26.350Z,95.50
2017-11-09T21:40:54.866Z,95.50
2017-11-09T21:43:23.245Z,95.40
2017-11-09T21:45:51.507Z,95.10
2017-11-09T21:48:19.845Z,95.20
2017-11-09T21:50:49.070Z,95.30
2017-11-09T21:53:17.486Z,95.30
2017-11-09T21:55:47.716Z,95.20
2017-11-09T21:58:17.618Z,94.90
2017-11-09T22:00:46.199Z,95.40
2017-11-09T22:03:14.509Z,95.60
2017-11-09T22:05:42.912Z,95.40
2017-11-09T22:08:11.172Z,95.60
2017-11-09T22:10:40.195Z,95.70
2017-11-09T22:13:08.476Z,95.60
2017-11-09T22:15:36.759Z,95.30
2017-11-09T22:18:06.327Z,95.40
2017-11-09T22:20:34.651Z,95.60
2017-11-09T22:23:02.911Z,95.70
2017-11-09T22:25:31.168Z,95.90
2017-11-09T22:27:59.501Z,96.20
2017-11-09T22:30:28.181Z,96.50
2017-11-09T22:32:58.626Z,96.50
2017-11-09T22:35:26.912Z,96.40
2017-11-09T22:37:55.180Z,96.00
2017-11-09T22:40:23.435Z,96.40
2017-11-09T22:42:51.709Z,96.20
2017-11-09T22:45:19.959Z,96.50
2017-11-09T22:47:48.213Z,96.40
2017-11-09T22:50:16.746Z,96.30
2017-11-09T22:52:44.996Z,95.90
2017-11-09T22:55:13.428Z,96.00
2017-11-09T22:57:41.708Z,96.00
2017-11-09T23:00:09.963Z,96.30
2017-11-09T23:02:38.224Z,96.20
2017-11-09T23:05:06.500Z,96.20
2017-11-09T23:07:34.759Z,96.20
2017-11-09T23:10:03.016Z,96.50
2017-11-09T23:12:31.801Z,96.20
2017-11-09T23:15:00.811Z,96.20
2017-11-09T23:17:29.067Z,96.10
2017-11-09T23:19:57.343Z,96.50
2017-11-09T23:22:25.591Z,97.30
2017-11-09T23:24:53.831Z,97.60
2017-11-09T23:27:22.100Z,97.20
2017-11-09T23:29:50.352Z,96.20
2017-11-09T23:32:19.755Z,96.30
2017-11-09T23:34:49.159Z,96.50
2017-11-09T23:37:18.632Z,96.50
2017-11-09T23:39:46.884Z,96.50
2017-11-09T23:42:15.154Z,97.60
2017-11-09T23:44:43.403Z,97.50
2017-11-09T23:47:11.647Z,97.00
2017-11-09T23:49:39.922Z,97.20
2017-11-09T23:52:08.176Z,98.00
2017-11-09T23:54:36.415Z,97.60
2017-11-09T23:57:04.875Z,97.10
2017-11-09T23:59:33.885Z,97.40
